TAF KGUY
KGUY 081720Z 0818/0918 17011KT P6SM SCT250 FM082300 19016G24KT P6SM BKN250 FM090100 20017KT P6SM SCT250 WS020/23045KT FM090900 25014G22KT P6SM SKC=
METAR KGUY
WC KGUY
WS KGUY
WV KGUY